Station: EBSP - 23/08/2019 16:21Z (il y a 28 minutes)
EBSP 231620Z AUTO 35005KT 320V030 CAVOK 24/11 Q1024
Vent du 350º - 5 kt (vent de direction variable de 320º à 030º)
Visibilité > 10 km et plafond haut ou pas de nuages significatifs
Température: +24ºC - Point de rosée: +11ºC - QNH: 1024 hPa